Flight Track Log - Related Links

Times and Time Zones

All times are in EST time to prevent confusion due to time zone crossing. See the N600GD flight status page for this flight to view local times or setup timezone preferences in your user account.


Time Position Orientation Groundspeed Altitude Reporting Facility
EST Latitude Longitude Course Direction KTS MPH feet Rate Location/Type
Sun 10:32:14 AM 41.8736 -71.0275 344° North 107 123 500  Level Boston Center
Sun 10:32:56 AM 41.8728 -71.0533 268° West 100 115 1,200 724 Climbing Boston Center
Sun 10:33:12 AM 41.8753 -71.0653 286° West 102 117 1,200 984 Level Boston Center
Sun 10:33:57 AM 41.8769 -71.0981 274° West 121 139 2,200 1,082 Climbing Boston Center
Sun 10:34:00 AM 41.9107 -71.4005 277° West  Level FlightAware Approximate
Sun 10:34:13 AM 41.8781 -71.1094 277° West 118 136 2,300  Level Boston Center
Sun 10:35:00 AM 41.9158 -71.4554 277° West  Level FlightAware Approximate
Sun 10:35:02 AM 41.8772 -71.1500 268° West 132 152 3,100  Level Boston Center
Sun 10:35:11 AM 41.8781 -71.1561 280° West 128 147 3,200 771 Climbing Boston Center
Sun 10:36:00 AM 41.9543 -71.4752 346° North  Level Estimated
Sun 10:36:12 AM 41.8894 -71.2067 287° West 132 152 4,000  Level Boston Center
Sun 10:36:59 AM 41.8889 -71.2411 269° West 129 148 4,900 968 Climbing Boston Center
Sun 10:37:00 AM 41.9927 -71.4951 344° North  Level Estimated
Sun 10:37:14 AM 41.8925 -71.2533 292° West 124 143 5,000  Level Boston Center
Sun 10:38:16 AM 41.8964 -71.2939 277° West 110 127 5,900 611 Climbing Boston Center
Sun 10:39:02 AM 41.8997 -71.3258 278° West 125 144 6,100 98 Climbing Boston Center
Sun 10:39:17 AM 41.9022 -71.3400 283° West 125 144 6,000  Descending Boston Center
Sun 10:40:02 AM 41.9056 -71.3828 276° West 146 168 6,100  Climbing Boston Center
Sun 10:40:17 AM 41.9078 -71.3978 281° West 144 166 6,000  Descending Boston Center
Sun 10:41:00 AM 41.9117 -71.4372 278° West 151 174 6,100  Climbing Boston Center
Sun 10:41:18 AM 41.9133 -71.4536 278° West 151 174 6,000  Descending Boston Center
Sun 10:42:01 AM 41.9172 -71.4942 277° West 151 174 6,100  Climbing Boston Center
Sun 10:42:19 AM 41.9194 -71.5086 282° West 150 173 6,000  Descending Boston Center
Sun 10:43:01 AM 41.9228 -71.5514 276° West 152 175 6,100  Climbing Boston Center
Sun 10:43:20 AM 41.9253 -71.5644 284° West 151 174 6,000 -76 Descending Boston Center
Sun 10:44:20 AM 41.9308 -71.6200 278° West 151 174 6,000 56 Level Boston Center
Sun 10:45:08 AM 41.9364 -71.6689 279° West 153 176 6,100 -95 Climbing Boston Center
Sun 10:45:23 AM 41.9372 -71.6806 275° West 152 175 5,900 -87 Descending Boston Center
Sun 10:46:17 AM 41.9436 -71.7319 280° West 154 177 6,000  Climbing Boston Center
Sun 10:46:23 AM 41.9433 -71.7369 266° West 154 177 5,900  Descending Boston Center
Sun 10:47:12 AM 41.9483 -71.7856 278° West 154 177 6,000  Climbing Boston Center
Sun 10:47:24 AM 41.9489 -71.7931 276° West 153 176 5,900  Descending Boston Center
Sun 10:48:12 AM 41.9553 -71.8397 280° West 152 175 6,000  Climbing Boston Center
Sun 10:48:25 AM 41.9600 -71.8461 315° West 151 174 5,900  Descending Boston Center
Sun 10:49:11 AM 41.9925 -71.8583 344° North 143 165 6,000  Climbing Boston Center
Sun 10:49:26 AM 42.0014 -71.8614 346° North 143 165 5,900  Descending Boston Center
Sun 10:50:14 AM 42.0303 -71.8742 342° North 145 167 6,000  Climbing Boston Center
Sun 10:50:26 AM 42.0406 -71.8756 354° North 144 166 5,900  Descending Boston Center
Sun 10:51:24 AM 42.0789 -71.8911 343° North 146 168 6,000 98 Climbing Boston Center
Sun 10:51:27 AM 42.0803 -71.8883 56° Northeast 148 170 6,000  Level Boston Center
Sun 10:52:28 AM 42.1192 -71.9036 344° North 146 168 6,000  Level Boston Center
Sun 10:53:22 AM 42.1556 -71.9178 344° North 143 165 6,000  Level Boston Center
Sun 10:53:28 AM 42.1589 -71.9194 340° North 142 163 6,000  Level Boston Center
Sun 10:54:23 AM 42.1933 -71.9336 343° North 144 166 6,000  Level Boston Center
Sun 10:54:32 AM 42.1972 -71.9339 357° North 145 167 6,000  Level Boston Center
Sun 10:55:32 AM 42.2353 -71.9467 346° North 141 162 6,000  Level Boston Center
Sun 10:56:33 AM 42.2769 -71.9608 346° North 143 165 6,000  Level Boston Center
Sun 10:57:34 AM 42.3156 -71.9753 345° North 144 166 6,000  Level Boston Center
Sun 10:58:34 AM 42.3561 -71.9878 347° North 152 175 6,000  Level Boston Center
Sun 10:59:34 AM 42.3947 -72.0017 345° North 145 167 6,000  Level Boston Center
Sun 11:00:38 AM 42.4372 -72.0186 344° North 144 166 6,000  Level Boston Center
Sun 11:01:39 AM 42.4750 -72.0319 345° North 141 162 6,000  Level Boston Center
Sun 11:02:40 AM 42.5131 -72.0461 345° North 141 162 6,000  Level Boston Center
Sun 11:03:41 AM 42.5497 -72.0597 345° North 139 160 6,000  Level Boston Center
Sun 11:04:42 AM 42.5856 -72.0942 325° Northwest 145 167 6,000  Level Boston Center
Sun 11:05:42 AM 42.6175 -72.1236 326° Northwest 140 161 6,000  Level Boston Center
Sun 11:06:43 AM 42.6500 -72.1558 324° Northwest 143 165 6,000  Level Boston Center
Sun 11:07:43 AM 42.6831 -72.1869 325° Northwest 145 167 6,000  Level Boston Center
Sun 11:08:45 AM 42.7167 -72.2175 326° Northwest 146 168 6,000  Level Boston Center
Sun 11:09:46 AM 42.7514 -72.2506 325° Northwest 142 163 6,000  Level Boston Center
Sun 11:10:49 AM 42.7819 -72.2803 324° Northwest 145 167 6,000  Level Boston Center
Sun 11:11:50 AM 42.8194 -72.2894 350° North 149 171 6,000  Level Boston Center
Sun 11:12:50 AM 42.8594 -72.2869 North 145 167 6,000  Level Boston Center
Sun 11:13:50 AM 42.9003 -72.2836 North 147 169 6,000  Level Boston Center
Sun 11:14:51 AM 42.9406 -72.2811 North 147 169 6,000  Level Boston Center
Sun 11:15:54 AM 42.9806 -72.2761 North 145 167 6,000  Level Boston Center
Sun 11:16:55 AM 43.0297 -72.2708 North 147 169 6,000  Level Boston Center
Sun 11:17:55 AM 43.0728 -72.2678 North 146 168 6,000  Level Boston Center
Sun 11:18:56 AM 43.1133 -72.2647 North 146 168 6,000  Level Boston Center
Sun 11:19:59 AM 43.1528 -72.2608 North 143 165 6,000  Level Boston Center
Sun 11:21:00 AM 43.1933 -72.2572 North 145 167 6,000  Level Boston Center
Sun 11:22:01 AM 43.2342 -72.2536 North 147 169 6,000  Level Boston Center
Sun 11:23:01 AM 43.2772 -72.2506 North 144 166 6,000  Level Boston Center
Sun 11:24:01 AM 43.3192 -72.2467 North 149 171 6,000  Level Boston Center
Sun 11:25:05 AM 43.3594 -72.2428 North 147 169 6,000  Level Boston Center
Sun 11:26:05 AM 43.3997 -72.2403 North 145 167 6,000  Level Boston Center
Sun 11:27:06 AM 43.4422 -72.2367 North 145 167 6,000  Level Boston Center
Sun 11:28:07 AM 43.4850 -72.2331 North 149 171 6,000  Level Boston Center
Sun 11:29:07 AM 43.5247 -72.2292 North 148 170 6,000  Level Boston Center
Sun 11:30:08 AM 43.5667 -72.2253 North 149 171 6,000  Level Boston Center
Sun 11:31:11 AM 43.6081 -72.2228 North 149 171 6,000  Level Boston Center
Sun 11:32:10 AM 43.6489 -72.2183 North 149 171 6,000  Level Boston Center
Sun 11:33:14 AM 43.6906 -72.2172 North 149 171 6,000  Level Boston Center
Sun 11:34:14 AM 43.7275 -72.2453 331° Northwest 154 177 6,000  Level Boston Center
Sun 11:35:15 AM 43.7650 -72.2647 339° North 150 173 6,000  Level Boston Center
Sun 11:36:17 AM 43.8022 -72.2858 338° Northwest 147 169 6,000  Level Boston Center
Sun 11:37:18 AM 43.8469 -72.3122 337° Northwest 146 168 6,000 198 Level Boston Center
Sun 11:38:18 AM 43.8836 -72.3333 337° Northwest 145 167 6,400 446 Climbing Boston Center
Sun 11:39:19 AM 43.9167 -72.3536 336° Northwest 140 161 6,900 339 Climbing Boston Center
Sun 11:40:22 AM 43.9483 -72.3694 340° North 132 152 7,100 97 Climbing Boston Center
Sun 11:41:23 AM 43.9847 -72.3886 339° North 133 153 7,100  Level Boston Center
Sun 11:42:24 AM 44.0286 -72.4161 336° Northwest 147 169 7,100  Level Boston Center
Sun 11:43:24 AM 44.0658 -72.4378 337° Northwest 148 170 7,100 -50 Level Boston Center
Sun 11:44:25 AM 44.1033 -72.4628 334° Northwest 148 170 7,000 -11 Descending Boston Center
Sun 11:46:00 AM 44.1552 -72.5030 331° Northwest  Level FlightAware Approximate
Sun 11:52:34 AM 44.3994 -72.6883 329° Northwest 149 171 7,000  Level Boston Center
Sun 11:53:00 AM 44.3841 -72.6816 331° Northwest  Level FlightAware Approximate
Sun 11:53:35 AM 44.4347 -72.7150 332° Northwest 146 168 7,000  Level Boston Center
Sun 11:54:00 AM 44.4168 -72.7073 331° Northwest  Level FlightAware Approximate
Sun 11:54:36 AM 44.4725 -72.7433 332° Northwest 144 166 7,000  Level Boston Center
Sun 11:55:00 AM 44.4495 -72.7329 331° Northwest  Level FlightAware Approximate
Sun 11:55:37 AM 44.5086 -72.7708 331° Northwest 148 170 7,000  Level Boston Center
Sun 11:56:00 AM 44.4842 -72.7528 338° Northwest  Level FlightAware Approximate
Sun 11:56:39 AM 44.5436 -72.7969 332° Northwest 145 167 7,000  Level Boston Center
Sun 11:57:00 AM 44.5189 -72.7727 338° Northwest  Level FlightAware Approximate
Sun 11:57:41 AM 44.5822 -72.8250 333° Northwest 146 168 6,500  Level Boston Center
Sun 11:58:00 AM 44.5536 -72.7925 338° Northwest  Level FlightAware Approximate
Sun 11:58:42 AM 44.6181 -72.8533 331° Northwest 150 173 6,000  Level Boston Center
Sun 11:59:00 AM 44.5866 -72.8170 329° Northwest  Level FlightAware Approximate
Sun 11:59:42 AM 44.6517 -72.8792 331° Northwest 149 171 6,000  Level Boston Center

Login

Don't have an account? Register now (free) for customized features, flight alerts, and more!